createdAt,value
2018-02-22T00:00:32.021Z,1019.09
2018-02-22T00:01:32.017Z,1019.06
2018-02-22T00:02:31.922Z,1019.09
2018-02-22T00:03:31.920Z,1019.15
2018-02-22T00:04:31.849Z,1019.11
2018-02-22T00:05:31.824Z,1019.10
2018-02-22T00:06:31.792Z,1019.07
2018-02-22T00:07:31.759Z,1019.10
2018-02-22T00:08:31.804Z,1019.11
2018-02-22T00:09:31.693Z,1019.10
2018-02-22T00:10:31.667Z,1019.09
2018-02-22T00:11:31.631Z,1019.06
2018-02-22T00:12:31.591Z,1019.02
2018-02-22T00:13:31.556Z,1018.98
2018-02-22T00:14:31.509Z,1019.01
2018-02-22T00:15:31.620Z,1019.01
2018-02-22T00:16:31.447Z,1018.97
2018-02-22T00:17:31.418Z,1018.99
2018-02-22T00:18:31.384Z,1018.99
2018-02-22T00:19:31.444Z,1019.00
2018-02-22T00:20:31.352Z,1018.98
2018-02-22T00:21:31.304Z,1018.98
2018-02-22T00:22:31.297Z,1018.98
2018-02-22T00:23:31.358Z,1018.97
2018-02-22T00:24:31.167Z,1018.96
2018-02-22T00:25:31.157Z,1018.91
2018-02-22T00:26:31.101Z,1018.93
2018-02-22T00:27:31.097Z,1018.87
2018-02-22T00:28:31.035Z,1018.87
2018-02-22T00:29:31.007Z,1018.88
2018-02-22T00:30:31.007Z,1018.90
2018-02-22T00:31:31.115Z,1018.85
2018-02-22T00:32:30.913Z,1018.85
2018-02-22T00:33:30.872Z,1018.88
2018-02-22T00:34:30.931Z,1018.84
2018-02-22T00:35:30.805Z,1018.85
2018-02-22T00:36:30.837Z,1018.83
2018-02-22T00:37:30.737Z,1018.84
2018-02-22T00:38:30.650Z,1018.87
2018-02-22T00:39:30.611Z,1018.85
2018-02-22T00:40:30.571Z,1018.87
2018-02-22T00:41:30.538Z,1018.90
2018-02-22T00:42:30.507Z,1018.82
2018-02-22T00:43:30.478Z,1018.83
2018-02-22T00:44:30.480Z,1018.86
2018-02-22T00:45:30.501Z,1018.83
2018-02-22T00:46:30.382Z,1018.83
2018-02-22T00:47:30.382Z,1018.85
2018-02-22T00:48:30.312Z,1018.85
2018-02-22T00:49:30.374Z,1018.88
2018-02-22T00:50:30.321Z,1018.84
2018-02-22T00:51:30.197Z,1018.81
2018-02-22T00:52:30.162Z,1018.83
2018-02-22T00:53:30.144Z,1018.81
2018-02-22T00:54:30.185Z,1018.83
2018-02-22T00:55:30.067Z,1018.83
2018-02-22T00:56:30.034Z,1018.81
2018-02-22T00:57:29.994Z,1018.83
2018-02-22T00:58:29.983Z,1018.86
2018-02-22T00:59:29.928Z,1018.83
2018-02-22T01:00:29.892Z,1018.84
2018-02-22T01:01:30.002Z,1018.83
2018-02-22T01:02:29.912Z,1018.81
2018-02-22T01:03:29.790Z,1018.79
2018-02-22T01:04:29.761Z,1018.78
2018-02-22T01:05:29.747Z,1018.83
2018-02-22T01:06:29.756Z,1018.83
2018-02-22T01:07:29.652Z,1018.87
2018-02-22T01:08:29.620Z,1018.86
2018-02-22T01:09:29.596Z,1018.85
2018-02-22T01:10:29.572Z,1018.88
2018-02-22T01:11:29.519Z,1018.87
2018-02-22T01:12:29.478Z,1018.89
2018-02-22T01:13:29.444Z,1018.91
2018-02-22T01:14:29.411Z,1018.87
2018-02-22T01:15:29.429Z,1018.87
2018-02-22T01:16:29.350Z,1018.89
2018-02-22T01:17:29.383Z,1018.88
2018-02-22T01:18:29.278Z,1018.87
2018-02-22T01:19:29.243Z,1018.88
2018-02-22T01:20:29.297Z,1018.89
2018-02-22T01:21:29.181Z,1018.84
2018-02-22T01:22:29.245Z,1018.91
2018-02-22T01:23:29.115Z,1018.89
2018-02-22T01:24:29.072Z,1018.88
2018-02-22T01:25:29.032Z,1018.90
2018-02-22T01:26:29.158Z,1018.83
2018-02-22T01:27:28.975Z,1018.82
2018-02-22T01:28:28.933Z,1018.86
2018-02-22T01:29:28.980Z,1018.88
2018-02-22T01:30:28.871Z,1018.86
2018-02-22T01:31:28.827Z,1018.87
2018-02-22T01:32:28.816Z,1018.83
2018-02-22T01:33:28.763Z,1018.83
2018-02-22T01:34:28.799Z,1018.76
2018-02-22T01:35:28.698Z,1018.77
2018-02-22T01:36:28.653Z,1018.80
2018-02-22T01:37:28.619Z,1018.79
2018-02-22T01:38:28.696Z,1018.76
2018-02-22T01:39:28.644Z,1018.75
2018-02-22T01:40:28.536Z,1018.75
2018-02-22T01:41:28.513Z,1018.73
2018-02-22T01:42:28.459Z,1018.78
2018-02-22T01:43:28.421Z,1018.73
2018-02-22T01:44:28.385Z,1018.76
2018-02-22T01:45:28.434Z,1018.73
2018-02-22T01:46:28.323Z,1018.77
2018-02-22T01:47:28.279Z,1018.75
2018-02-22T01:48:28.246Z,1018.72
2018-02-22T01:49:28.250Z,1018.77
2018-02-22T01:50:28.188Z,1018.75
2018-02-22T01:51:28.665Z,1018.74
2018-02-22T01:52:28.114Z,1018.70
2018-02-22T01:53:28.082Z,1018.71
2018-02-22T01:54:28.095Z,1018.69
2018-02-22T01:55:28.049Z,1018.71
2018-02-22T01:56:28.008Z,1018.67
2018-02-22T01:57:28.036Z,1018.63
2018-02-22T01:58:27.907Z,1018.62
2018-02-22T01:59:27.867Z,1018.66
2018-02-22T02:00:27.962Z,1018.59
2018-02-22T02:01:27.798Z,1018.67
2018-02-22T02:02:27.792Z,1018.61
2018-02-22T02:03:27.730Z,1018.63
2018-02-22T02:04:27.809Z,1018.62
2018-02-22T02:05:27.707Z,1018.58
2018-02-22T02:06:27.631Z,1018.61
2018-02-22T02:07:27.588Z,1018.55
2018-02-22T02:08:27.563Z,1018.56
2018-02-22T02:09:27.534Z,1018.54
2018-02-22T02:10:27.485Z,1018.51
2018-02-22T02:11:27.455Z,1018.53
2018-02-22T02:12:27.433Z,1018.57
2018-02-22T02:13:27.482Z,1018.54
2018-02-22T02:14:27.359Z,1018.54
2018-02-22T02:15:27.322Z,1018.56
2018-02-22T02:16:27.285Z,1018.54
2018-02-22T02:17:27.247Z,1018.54
2018-02-22T02:18:27.214Z,1018.55
2018-02-22T02:19:27.186Z,1018.56
2018-02-22T02:20:27.235Z,1018.57
2018-02-22T02:21:27.105Z,1018.55
2018-02-22T02:22:27.073Z,1018.60
2018-02-22T02:23:27.044Z,1018.55
2018-02-22T02:24:27.012Z,1018.60
2018-02-22T02:25:26.979Z,1018.60
2018-02-22T02:26:26.934Z,1018.60
2018-02-22T02:27:26.920Z,1018.58
2018-02-22T02:28:26.910Z,1018.49
2018-02-22T02:29:26.839Z,1018.55
2018-02-22T02:30:26.858Z,1018.58
2018-02-22T02:31:26.783Z,1018.56
2018-02-22T02:32:26.762Z,1018.52
2018-02-22T02:33:26.821Z,1018.52
2018-02-22T02:34:26.671Z,1018.53
2018-02-22T02:35:26.639Z,1018.51
2018-02-22T02:36:26.590Z,1018.53
2018-02-22T02:37:26.575Z,1018.49
2018-02-22T02:38:26.526Z,1018.49
2018-02-22T02:39:26.581Z,1018.51
2018-02-22T02:40:26.481Z,1018.45
2018-02-22T02:41:26.420Z,1018.46
2018-02-22T02:42:26.412Z,1018.40
2018-02-22T02:43:26.372Z,1018.42
2018-02-22T02:44:26.338Z,1018.40
2018-02-22T02:45:26.278Z,1018.44
2018-02-22T02:46:26.334Z,1018.44
2018-02-22T02:47:26.218Z,1018.41
2018-02-22T02:48:26.202Z,1018.42
2018-02-22T02:49:26.233Z,1018.38
2018-02-22T02:50:26.154Z,1018.42
2018-02-22T02:51:26.076Z,1018.45
2018-02-22T02:52:26.060Z,1018.40
2018-02-22T02:53:26.061Z,1018.41
2018-02-22T02:54:25.969Z,1018.41
2018-02-22T02:55:25.959Z,1018.45
2018-02-22T02:56:25.942Z,1018.41
2018-02-22T02:57:25.939Z,1018.39
2018-02-22T02:58:25.833Z,1018.39
2018-02-22T02:59:25.836Z,1018.42
2018-02-22T03:00:25.781Z,1018.39
2018-02-22T03:01:25.734Z,1018.38
2018-02-22T03:02:25.732Z,1018.38
2018-02-22T03:03:25.662Z,1018.41
2018-02-22T03:04:25.626Z,1018.38
2018-02-22T03:05:25.651Z,1018.38
2018-02-22T03:06:25.548Z,1018.39
2018-02-22T03:07:25.593Z,1018.40
2018-02-22T03:08:25.489Z,1018.41
2018-02-22T03:09:25.456Z,1018.44
2018-02-22T03:10:25.642Z,1018.45
2018-02-22T03:11:25.486Z,1018.45
2018-02-22T03:12:25.431Z,1018.41
2018-02-22T03:13:25.319Z,1018.42
2018-02-22T03:14:25.276Z,1018.35
2018-02-22T03:15:25.303Z,1018.39
2018-02-22T03:16:25.267Z,1018.35
2018-02-22T03:17:25.204Z,1018.41
2018-02-22T03:18:25.252Z,1018.35
2018-02-22T03:19:25.103Z,1018.39
2018-02-22T03:20:25.066Z,1018.38
2018-02-22T03:21:25.060Z,1018.30
2018-02-22T03:22:25.036Z,1018.32
2018-02-22T03:23:24.972Z,1018.33
2018-02-22T03:24:25.030Z,1018.32
2018-02-22T03:25:24.897Z,1018.32
2018-02-22T03:26:24.886Z,1018.34
2018-02-22T03:27:24.837Z,1018.31
2018-02-22T03:28:24.800Z,1018.30
2018-02-22T03:29:24.756Z,1018.29
2018-02-22T03:30:24.729Z,1018.29
2018-02-22T03:31:24.767Z,1018.28
2018-02-22T03:32:24.648Z,1018.29
2018-02-22T03:33:24.627Z,1018.27
2018-02-22T03:34:24.652Z,1018.27
2018-02-22T03:35:24.546Z,1018.26
2018-02-22T03:36:24.528Z,1018.30
2018-02-22T03:37:24.525Z,1018.30
2018-02-22T03:38:24.541Z,1018.28
2018-02-22T03:39:24.461Z,1018.27
2018-02-22T03:40:24.375Z,1018.30
2018-02-22T03:41:24.343Z,1018.27
2018-02-22T03:42:24.318Z,1018.31
2018-02-22T03:43:24.360Z,1018.29
2018-02-22T03:44:24.248Z,1018.32
2018-02-22T03:45:24.207Z,1018.26
2018-02-22T03:46:24.244Z,1018.28
2018-02-22T03:47:24.191Z,1018.25
2018-02-22T03:48:24.126Z,1018.27
2018-02-22T03:49:24.090Z,1018.31
2018-02-22T03:50:24.027Z,1018.30
2018-02-22T03:51:23.995Z,1018.29
2018-02-22T03:52:23.961Z,1018.33
2018-02-22T03:53:24.045Z,1018.30
2018-02-22T03:54:23.996Z,1018.29
2018-02-22T03:55:23.847Z,1018.29
2018-02-22T03:56:23.813Z,1018.27
2018-02-22T03:57:23.782Z,1018.28
2018-02-22T03:58:23.742Z,1018.30
2018-02-22T03:59:23.719Z,1018.31
2018-02-22T04:00:23.679Z,1018.33
2018-02-22T04:01:23.708Z,1018.32
2018-02-22T04:02:23.605Z,1018.31
2018-02-22T04:03:23.575Z,1018.29
2018-02-22T04:04:23.693Z,1018.26
2018-02-22T04:05:23.507Z,1018.28
2018-02-22T04:06:23.476Z,1018.28
2018-02-22T04:07:23.580Z,1018.30
2018-02-22T04:08:23.397Z,1018.31
2018-02-22T04:09:23.373Z,1018.33
2018-02-22T04:10:23.424Z,1018.33
2018-02-22T04:11:23.297Z,1018.30
2018-02-22T04:12:23.265Z,1018.34
2018-02-22T04:13:23.263Z,1018.35
2018-02-22T04:14:23.185Z,1018.31
2018-02-22T04:15:23.152Z,1018.37
2018-02-22T04:16:23.141Z,1018.31
2018-02-22T04:17:23.097Z,1018.30
2018-02-22T04:18:23.080Z,1018.34
2018-02-22T04:19:23.031Z,1018.31
2018-02-22T04:20:22.979Z,1018.37
2018-02-22T04:21:23.020Z,1018.33
2018-02-22T04:22:22.963Z,1018.33
2018-02-22T04:23:22.876Z,1018.36
2018-02-22T04:24:22.843Z,1018.39
2018-02-22T04:25:22.841Z,1018.39
2018-02-22T04:26:22.809Z,1018.40
2018-02-22T04:27:22.737Z,1018.40
2018-02-22T04:28:22.702Z,1018.39
2018-02-22T04:29:22.735Z,1018.35
2018-02-22T04:30:22.664Z,1018.39
2018-02-22T04:31:22.592Z,1018.36
2018-02-22T04:32:22.569Z,1018.36
2018-02-22T04:33:22.522Z,1018.38
2018-02-22T04:34:22.558Z,1018.36
2018-02-22T04:35:22.475Z,1018.35
2018-02-22T04:36:22.424Z,1018.38
2018-02-22T04:37:22.399Z,1018.36
2018-02-22T04:38:22.358Z,1018.36
2018-02-22T04:39:22.328Z,1018.32
2018-02-22T04:40:22.277Z,1018.34
2018-02-22T04:41:22.321Z,1018.38
2018-02-22T04:42:22.216Z,1018.32
2018-02-22T04:43:22.192Z,1018.39
2018-02-22T04:44:22.218Z,1018.40
2018-02-22T04:45:22.114Z,1018.38
2018-02-22T04:46:22.084Z,1018.41
2018-02-22T04:47:22.067Z,1018.41
2018-02-22T04:48:22.083Z,1018.42
2018-02-22T04:49:21.972Z,1018.43
2018-02-22T04:50:21.955Z,1018.42
2018-02-22T04:51:21.941Z,1018.40
2018-02-22T04:52:21.862Z,1018.38
2018-02-22T04:53:21.841Z,1018.39
2018-02-22T04:54:21.822Z,1018.43
2018-02-22T04:55:21.756Z,1018.40
2018-02-22T04:56:21.839Z,1018.45
2018-02-22T04:57:21.687Z,1018.45
2018-02-22T04:58:21.651Z,1018.40
2018-02-22T04:59:21.626Z,1018.47
2018-02-22T05:00:21.643Z,1018.45
2018-02-22T05:01:21.549Z,1018.45
2018-02-22T05:02:21.563Z,1018.46
2018-02-22T05:03:21.483Z,1018.43
2018-02-22T05:04:21.490Z,1018.45
2018-02-22T05:05:21.410Z,1018.41
2018-02-22T05:06:21.373Z,1018.44
2018-02-22T05:07:21.338Z,1018.42
2018-02-22T05:08:21.510Z,1018.49
2018-02-22T05:09:21.396Z,1018.45
2018-02-22T05:10:21.234Z,1018.46
2018-02-22T05:11:21.196Z,1018.42
2018-02-22T05:12:21.291Z,1018.51
2018-02-22T05:13:21.124Z,1018.53
2018-02-22T05:14:21.097Z,1018.52
2018-02-22T05:15:21.074Z,1018.53
2018-02-22T05:16:21.130Z,1018.54
2018-02-22T05:17:20.999Z,1018.54
2018-02-22T05:18:20.988Z,1018.50
2018-02-22T05:19:21.052Z,1018.54
2018-02-22T05:20:20.888Z,1018.58
2018-02-22T05:21:20.863Z,1018.56
2018-02-22T05:22:20.821Z,1018.56
2018-02-22T05:23:20.779Z,1018.56
2018-02-22T05:24:20.740Z,1018.57
2018-02-22T05:25:20.709Z,1018.60
2018-02-22T05:26:20.672Z,1018.65
2018-02-22T05:27:20.634Z,1018.56
2018-02-22T05:28:20.621Z,1018.62
2018-02-22T05:29:20.609Z,1018.65
2018-02-22T05:30:20.620Z,1018.60
2018-02-22T05:31:20.498Z,1018.62
2018-02-22T05:32:20.475Z,1018.61
2018-02-22T05:33:20.528Z,1018.54
2018-02-22T05:34:20.433Z,1018.61
2018-02-22T05:35:20.369Z,1018.62
2018-02-22T05:36:20.329Z,1018.57
2018-02-22T05:37:20.304Z,1018.64
2018-02-22T05:38:20.260Z,1018.62
2018-02-22T05:39:20.217Z,1018.65
2018-02-22T05:40:20.234Z,1018.64
2018-02-22T05:41:20.151Z,1018.67
2018-02-22T05:42:20.109Z,1018.68
2018-02-22T05:43:20.195Z,1018.69
2018-02-22T05:44:20.046Z,1018.76
2018-02-22T05:45:20.072Z,1018.71
2018-02-22T05:46:20.096Z,1018.76
2018-02-22T05:47:19.966Z,1018.70
2018-02-22T05:48:19.907Z,1018.70
2018-02-22T05:49:19.943Z,1018.72
2018-02-22T05:50:19.886Z,1018.71
2018-02-22T05:51:19.809Z,1018.67
2018-02-22T05:52:19.793Z,1018.75
2018-02-22T05:53:19.735Z,1018.70
2018-02-22T05:54:19.768Z,1018.71
2018-02-22T05:55:19.785Z,1018.70
2018-02-22T05:56:19.640Z,1018.74
2018-02-22T05:57:19.585Z,1018.71
2018-02-22T05:58:19.552Z,1018.73
2018-02-22T05:59:19.525Z,1018.71
2018-02-22T06:00:19.485Z,1018.78
2018-02-22T06:01:19.453Z,1018.74
2018-02-22T06:02:19.412Z,1018.76
2018-02-22T06:03:19.398Z,1018.74
2018-02-22T06:04:19.337Z,1018.79
2018-02-22T06:05:19.305Z,1018.75
2018-02-22T06:06:19.285Z,1018.71
2018-02-22T06:07:19.281Z,1018.74
2018-02-22T06:08:19.201Z,1018.78
2018-02-22T06:09:19.162Z,1018.77
2018-02-22T06:10:19.152Z,1018.75
2018-02-22T06:11:19.109Z,1018.76
2018-02-22T06:12:19.264Z,1018.77
2018-02-22T06:13:19.032Z,1018.74
2018-02-22T06:14:18.997Z,1018.77
2018-02-22T06:15:18.962Z,1018.80
2018-02-22T06:16:18.921Z,1018.77
2018-02-22T06:17:18.887Z,1018.82
2018-02-22T06:18:18.873Z,1018.80
2018-02-22T06:19:18.846Z,1018.80
2018-02-22T06:20:18.785Z,1018.80
2018-02-22T06:21:18.743Z,1018.81
2018-02-22T06:22:18.713Z,1018.86
2018-02-22T06:23:18.773Z,1018.86
2018-02-22T06:24:18.640Z,1018.88
2018-02-22T06:25:18.603Z,1018.88
2018-02-22T06:26:18.650Z,1018.86
2018-02-22T06:27:18.586Z,1018.86
2018-02-22T06:28:18.552Z,1018.86
2018-02-22T06:29:18.466Z,1018.91
2018-02-22T06:30:18.448Z,1018.93
2018-02-22T06:31:18.513Z,1018.88
2018-02-22T06:32:18.365Z,1018.88
2018-02-22T06:33:18.455Z,1018.95
2018-02-22T06:34:18.298Z,1018.90
2018-02-22T06:35:18.340Z,1018.91
2018-02-22T06:36:18.334Z,1018.90
2018-02-22T06:37:18.178Z,1018.88
2018-02-22T06:38:18.201Z,1018.90
2018-02-22T06:39:18.109Z,1018.95
2018-02-22T06:40:18.179Z,1018.96
2018-02-22T06:41:18.154Z,1018.97
2018-02-22T06:42:18.032Z,1019.02
2018-02-22T06:43:18.291Z,1018.98
2018-02-22T06:44:17.940Z,1019.01
2018-02-22T06:45:17.968Z,1019.00
2018-02-22T06:46:17.868Z,1019.03
2018-02-22T06:47:17.949Z,1019.02
2018-02-22T06:48:17.806Z,1018.96
2018-02-22T06:49:17.762Z,1018.98
2018-02-22T06:50:17.732Z,1018.97
2018-02-22T06:51:17.718Z,1019.00
2018-02-22T06:52:17.654Z,1019.02
2018-02-22T06:53:17.622Z,1019.04
2018-02-22T06:54:17.582Z,1019.06
2018-02-22T06:55:17.547Z,1019.03
2018-02-22T06:56:17.514Z,1019.00
2018-02-22T06:57:17.486Z,1018.99
2018-02-22T06:58:17.563Z,1018.99
2018-02-22T06:59:17.411Z,1019.04
2018-02-22T07:00:17.424Z,1018.97
2018-02-22T07:01:17.348Z,1019.01
2018-02-22T07:02:17.315Z,1018.99
2018-02-22T07:03:17.321Z,1019.03
2018-02-22T07:04:17.282Z,1018.99
2018-02-22T07:05:17.261Z,1019.02
2018-02-22T07:06:17.164Z,1018.99
2018-02-22T07:07:17.193Z,1018.99
2018-02-22T07:08:17.090Z,1019.00
2018-02-22T07:09:17.180Z,1018.98
2018-02-22T07:10:17.508Z,1018.99
2018-02-22T07:11:17.092Z,1018.96
2018-02-22T07:12:16.955Z,1018.98
2018-02-22T07:13:16.918Z,1018.99
2018-02-22T07:14:16.912Z,1018.97
2018-02-22T07:15:16.878Z,1019.05
2018-02-22T07:16:16.901Z,1018.98
2018-02-22T07:17:16.847Z,1019.01
2018-02-22T07:18:16.744Z,1019.00
2018-02-22T07:19:16.709Z,1019.08
2018-02-22T07:20:16.687Z,1019.06
2018-02-22T07:21:16.723Z,1019.08
2018-02-22T07:22:16.613Z,1019.06
2018-02-22T07:23:17.006Z,1019.09
2018-02-22T07:24:16.610Z,1019.01
2018-02-22T07:25:16.580Z,1019.04
2018-02-22T07:26:16.555Z,1019.01
2018-02-22T07:27:16.490Z,1019.04
2018-02-22T07:28:16.512Z,1019.04
2018-02-22T07:29:16.476Z,1019.03
2018-02-22T07:30:16.397Z,1019.01
2018-02-22T07:31:16.379Z,1019.02
2018-02-22T07:32:16.343Z,1019.06
2018-02-22T07:33:16.300Z,1019.06
2018-02-22T07:34:16.306Z,1019.05
2018-02-22T07:35:16.244Z,1019.06
2018-02-22T07:36:16.163Z,1019.06
2018-02-22T07:37:16.162Z,1019.12
2018-02-22T07:38:16.110Z,1019.08
2018-02-22T07:39:16.101Z,1019.07
2018-02-22T07:40:16.046Z,1019.10
2018-02-22T07:41:16.038Z,1019.12
2018-02-22T07:42:15.968Z,1019.12
2018-02-22T07:43:15.930Z,1019.13
2018-02-22T07:44:15.889Z,1019.09
2018-02-22T07:45:15.879Z,1019.08
2018-02-22T07:46:15.840Z,1019.08
2018-02-22T07:47:15.856Z,1019.09
2018-02-22T07:48:15.762Z,1019.10
2018-02-22T07:49:15.770Z,1019.11
2018-02-22T07:50:15.691Z,1019.06
2018-02-22T07:51:15.649Z,1019.07
2018-02-22T07:52:15.597Z,1019.05
2018-02-22T07:53:15.594Z,1019.04
2018-02-22T07:54:15.580Z,1019.08
2018-02-22T07:55:15.510Z,1019.10
2018-02-22T07:56:15.530Z,1019.10
2018-02-22T07:57:15.425Z,1019.08
2018-02-22T07:58:15.404Z,1019.12
2018-02-22T07:59:15.402Z,1019.11
2018-02-22T08:00:15.350Z,1019.13
2018-02-22T08:01:15.305Z,1019.15
2018-02-22T08:02:15.273Z,1019.13
2018-02-22T08:03:15.229Z,1019.18
2018-02-22T08:04:15.212Z,1019.20
2018-02-22T08:05:15.353Z,1019.16
2018-02-22T08:06:15.122Z,1019.15
2018-02-22T08:07:15.146Z,1019.12
2018-02-22T08:08:15.056Z,1019.12
2018-02-22T08:09:14.989Z,1019.16
2018-02-22T08:10:14.982Z,1019.16
2018-02-22T08:11:15.024Z,1019.12
2018-02-22T08:12:14.937Z,1019.15
2018-02-22T08:13:14.905Z,1019.13
2018-02-22T08:14:14.904Z,1019.15
2018-02-22T08:15:14.839Z,1019.18
2018-02-22T08:16:14.843Z,1019.17
2018-02-22T08:17:14.771Z,1019.20
2018-02-22T08:18:14.705Z,1019.19
2018-02-22T08:19:14.664Z,1019.16
2018-02-22T08:20:14.705Z,1019.16
2018-02-22T08:21:14.606Z,1019.18
2018-02-22T08:22:14.610Z,1019.19
2018-02-22T08:23:14.566Z,1019.16
2018-02-22T08:24:14.553Z,1019.18
2018-02-22T08:25:14.484Z,1019.14
2018-02-22T08:26:14.465Z,1019.23
2018-02-22T08:27:14.428Z,1019.20
2018-02-22T08:28:14.366Z,1019.17
2018-02-22T08:29:14.323Z,1019.22
2018-02-22T08:30:14.307Z,1019.22
2018-02-22T08:31:14.282Z,1019.24
2018-02-22T08:32:14.216Z,1019.24
2018-02-22T08:33:14.198Z,1019.26
2018-02-22T08:34:14.145Z,1019.20
2018-02-22T08:35:14.123Z,1019.23
2018-02-22T08:36:14.151Z,1019.21
2018-02-22T08:37:14.065Z,1019.14
2018-02-22T08:38:14.060Z,1019.14
2018-02-22T08:39:14.100Z,1019.16
2018-02-22T08:40:13.973Z,1019.19
2018-02-22T08:41:13.974Z,1019.18
2018-02-22T08:42:13.877Z,1019.18
2018-02-22T08:43:13.871Z,1019.17
2018-02-22T08:44:13.834Z,1019.15
2018-02-22T08:45:13.791Z,1019.15
2018-02-22T08:46:13.774Z,1019.18
2018-02-22T08:47:13.706Z,1019.16
2018-02-22T08:48:13.687Z,1019.18
2018-02-22T08:49:13.649Z,1019.25
2018-02-22T08:50:13.686Z,1019.22
2018-02-22T08:51:13.631Z,1019.19
2018-02-22T08:52:13.554Z,1019.29
2018-02-22T08:53:13.503Z,1019.26
2018-02-22T08:54:13.526Z,1019.27
2018-02-22T08:55:13.472Z,1019.27
2018-02-22T08:56:13.429Z,1019.28
2018-02-22T08:57:13.402Z,1019.26
2018-02-22T08:58:13.389Z,1019.28
2018-02-22T08:59:13.344Z,1019.29
2018-02-22T09:00:13.286Z,1019.25
2018-02-22T09:01:13.264Z,1019.30
2018-02-22T09:02:13.186Z,1019.22
2018-02-22T09:03:13.183Z,1019.27
2018-02-22T09:04:13.157Z,1019.23
2018-02-22T09:05:13.088Z,1019.29
2018-02-22T09:06:13.081Z,1019.27
2018-02-22T09:07:13.041Z,1019.25
2018-02-22T09:08:13.036Z,1019.30
2018-02-22T09:09:13.017Z,1019.23
2018-02-22T09:10:12.986Z,1019.18
2018-02-22T09:11:12.918Z,1019.24
2018-02-22T09:12:12.849Z,1019.21
2018-02-22T09:13:12.854Z,1019.15
2018-02-22T09:14:12.810Z,1019.22
2018-02-22T09:15:12.774Z,1019.22
2018-02-22T09:16:12.746Z,1019.19
2018-02-22T09:17:12.696Z,1019.21
2018-02-22T09:18:12.651Z,1019.22
2018-02-22T09:19:12.639Z,1019.15
2018-02-22T09:20:12.623Z,1019.17
2018-02-22T09:21:12.583Z,1019.19
2018-02-22T09:22:12.533Z,1019.20
2018-02-22T09:23:12.505Z,1019.13
2018-02-22T09:24:12.474Z,1019.11
2018-02-22T09:25:12.466Z,1019.09
2018-02-22T09:26:12.416Z,1019.14
2018-02-22T09:27:12.376Z,1019.12
2018-02-22T09:28:12.334Z,1019.09
2018-02-22T09:29:12.340Z,1019.10
2018-02-22T09:30:12.287Z,1019.03
2018-02-22T09:31:12.213Z,1019.01
2018-02-22T09:32:12.223Z,1018.97
2018-02-22T09:33:12.171Z,1019.05
2018-02-22T09:34:12.160Z,1018.97
2018-02-22T09:35:12.139Z,1019.03
2018-02-22T09:36:12.042Z,1019.05
2018-02-22T09:37:12.147Z,1019.01
2018-02-22T09:38:12.053Z,1018.98
2018-02-22T09:39:11.973Z,1018.99
2018-02-22T09:40:11.934Z,1019.00
2018-02-22T09:41:11.905Z,1019.04
2018-02-22T09:42:11.868Z,1018.97
2018-02-22T09:43:11.829Z,1019.00
2018-02-22T09:44:11.823Z,1019.01
2018-02-22T09:45:11.795Z,1018.97
2018-02-22T09:46:11.692Z,1018.95
2018-02-22T09:47:11.712Z,1019.00
2018-02-22T09:48:11.650Z,1019.00
2018-02-22T09:49:11.636Z,1019.01
2018-02-22T09:50:11.605Z,1019.01
2018-02-22T09:51:11.517Z,1019.03
2018-02-22T09:52:11.527Z,1019.04
2018-02-22T09:53:11.532Z,1019.01
2018-02-22T09:54:11.462Z,1018.97
2018-02-22T09:55:11.458Z,1019.00
2018-02-22T09:56:11.385Z,1018.96
2018-02-22T09:57:11.348Z,1018.99
2018-02-22T09:58:11.326Z,1018.98
2018-02-22T09:59:11.252Z,1019.03
2018-02-22T10:00:11.217Z,1019.09
2018-02-22T10:01:11.180Z,1019.03
2018-02-22T10:02:11.291Z,1019.01
2018-02-22T10:03:11.161Z,1019.02
2018-02-22T10:04:11.125Z,1019.00
2018-02-22T10:05:11.053Z,1018.99
2018-02-22T10:06:11.185Z,1018.95
2018-02-22T10:07:11.148Z,1018.96
2018-02-22T10:08:10.954Z,1018.99
2018-02-22T10:09:10.928Z,1019.02
2018-02-22T10:10:10.893Z,1018.98
2018-02-22T10:11:10.852Z,1019.00
2018-02-22T10:12:10.958Z,1018.96
2018-02-22T10:13:10.792Z,1018.95
2018-02-22T10:14:10.757Z,1018.94
2018-02-22T10:15:10.770Z,1018.95
2018-02-22T10:16:10.728Z,1018.96
2018-02-22T10:17:10.659Z,1018.98
2018-02-22T10:18:10.665Z,1018.90
2018-02-22T10:19:10.631Z,1018.99
2018-02-22T10:20:10.612Z,1018.94
2018-02-22T10:21:10.535Z,1018.92
2018-02-22T10:22:10.668Z,1018.93
2018-02-22T10:23:10.580Z,1018.95
2018-02-22T10:24:10.436Z,1019.00
2018-02-22T10:25:10.405Z,1018.99
2018-02-22T10:26:10.381Z,1018.94
2018-02-22T10:27:10.357Z,1018.99
2018-02-22T10:28:10.303Z,1018.95
2018-02-22T10:29:10.284Z,1018.95
2018-02-22T10:30:10.253Z,1018.97
2018-02-22T10:31:10.208Z,1018.95
2018-02-22T10:32:10.174Z,1018.96
2018-02-22T10:33:10.247Z,1019.02
2018-02-22T10:34:10.109Z,1018.89
2018-02-22T10:35:10.087Z,1018.90
2018-02-22T10:36:10.068Z,1018.94
2018-02-22T10:37:10.140Z,1018.98
2018-02-22T10:38:09.989Z,1018.92
2018-02-22T10:39:10.056Z,1018.92
2018-02-22T10:40:09.929Z,1018.90
2018-02-22T10:41:09.892Z,1018.89
2018-02-22T10:42:09.880Z,1018.88
2018-02-22T10:43:09.863Z,1018.91
2018-02-22T10:44:09.792Z,1018.87
2018-02-22T10:45:09.783Z,1018.86
2018-02-22T10:46:09.737Z,1018.83
2018-02-22T10:47:09.731Z,1018.82
2018-02-22T10:48:09.692Z,1018.82
2018-02-22T10:49:09.745Z,1018.81
2018-02-22T10:50:09.658Z,1018.78
2018-02-22T10:51:09.616Z,1018.77
2018-02-22T10:52:09.542Z,1018.78
2018-02-22T10:53:09.548Z,1018.83
2018-02-22T10:54:09.565Z,1018.77
2018-02-22T10:55:09.453Z,1018.73
2018-02-22T10:56:09.412Z,1018.73
2018-02-22T10:57:09.475Z,1018.75
2018-02-22T10:58:10.238Z,1018.71
2018-02-22T10:59:09.422Z,1018.75
2018-02-22T11:00:09.286Z,1018.75
2018-02-22T11:01:10.128Z,1018.76
2018-02-22T11:02:09.250Z,1018.76
2018-02-22T11:03:09.212Z,1018.73
2018-02-22T11:04:09.216Z,1018.77
2018-02-22T11:05:09.132Z,1018.72
2018-02-22T11:06:09.119Z,1018.76
2018-02-22T11:07:09.068Z,1018.74
2018-02-22T11:08:09.090Z,1018.69
2018-02-22T11:09:09.090Z,1018.75
2018-02-22T11:10:09.015Z,1018.71
2018-02-22T11:11:09.104Z,1018.71
2018-02-22T11:12:08.905Z,1018.72
2018-02-22T11:13:08.929Z,1018.75
2018-02-22T11:14:08.899Z,1018.75
2018-02-22T11:15:08.855Z,1018.70
2018-02-22T11:16:09.117Z,1018.67
2018-02-22T11:17:09.012Z,1018.71
2018-02-22T11:18:09.633Z,1018.63
2018-02-22T11:19:08.693Z,1018.70
2018-02-22T11:20:08.710Z,1018.75
2018-02-22T11:21:08.705Z,1018.70
2018-02-22T11:22:08.599Z,1018.65
2018-02-22T11:23:08.636Z,1018.71
2018-02-22T11:24:08.580Z,1018.66
2018-02-22T11:25:08.513Z,1018.61
2018-02-22T11:26:08.468Z,1018.64
2018-02-22T11:27:08.484Z,1018.56
2018-02-22T11:28:08.437Z,1018.63
2018-02-22T11:29:08.598Z,1018.59
2018-02-22T11:30:08.432Z,1018.62
2018-02-22T11:31:08.323Z,1018.62
2018-02-22T11:32:08.287Z,1018.59
2018-02-22T11:33:08.376Z,1018.65
2018-02-22T11:34:08.225Z,1018.56
2018-02-22T11:35:08.196Z,1018.57
2018-02-22T11:36:08.194Z,1018.56
2018-02-22T11:37:08.160Z,1018.53
2018-02-22T11:38:08.104Z,1018.55
2018-02-22T11:39:08.173Z,1018.56
2018-02-22T11:40:08.042Z,1018.54
2018-02-22T11:41:08.042Z,1018.55
2018-02-22T11:42:08.169Z,1018.46
2018-02-22T11:43:07.952Z,1018.46
2018-02-22T11:44:07.920Z,1018.46
2018-02-22T11:45:07.923Z,1018.40
2018-02-22T11:46:07.859Z,1018.48
2018-02-22T11:47:08.006Z,1018.46
2018-02-22T11:48:07.891Z,1018.48
2018-02-22T11:49:07.875Z,1018.44
2018-02-22T11:50:07.883Z,1018.52
2018-02-22T11:51:07.738Z,1018.46
2018-02-22T11:52:07.678Z,1018.48
2018-02-22T11:53:07.819Z,1018.49
2018-02-22T11:54:07.644Z,1018.46
2018-02-22T11:55:07.581Z,1018.33
2018-02-22T11:56:07.563Z,1018.34
2018-02-22T11:57:07.542Z,1018.35
2018-02-22T11:58:07.502Z,1018.39
2018-02-22T11:59:07.460Z,1018.37
2018-02-22T12:00:07.445Z,1018.42
2018-02-22T12:01:07.400Z,1018.34
2018-02-22T12:02:07.436Z,1018.33
2018-02-22T12:03:07.369Z,1018.34
2018-02-22T12:04:07.314Z,1018.32
2018-02-22T12:05:07.393Z,1018.30